sensor_id;sensor_type;location;lat;lon;timestamp;pressure;altitude;pressure_sealevel;temperature;humidity
29941;BME280;16801;53.562;10.038;2023-03-23T00:00:47;100266.13;;;11.14;80.19
29941;BME280;16801;53.562;10.038;2023-03-23T00:04:07;100272.97;;;11.08;81.23
29941;BME280;16801;53.562;10.038;2023-03-23T00:07:29;100260.28;;;10.97;82.98
29941;BME280;16801;53.562;10.038;2023-03-23T00:10:50;100254.53;;;10.93;84.39
29941;BME280;16801;53.562;10.038;2023-03-23T00:14:12;100252.00;;;10.85;85.98
29941;BME280;16801;53.562;10.038;2023-03-23T00:17:34;100259.34;;;10.90;86.62
29941;BME280;16801;53.562;10.038;2023-03-23T00:20:56;100252.94;;;10.78;88.25
29941;BME280;16801;53.562;10.038;2023-03-23T00:24:18;100255.94;;;10.75;88.60
29941;BME280;16801;53.562;10.038;2023-03-23T00:27:39;100260.94;;;10.70;89.41
29941;BME280;16801;53.562;10.038;2023-03-23T00:31:05;100244.19;;;10.77;89.50
29941;BME280;16801;53.562;10.038;2023-03-23T00:34:29;100242.47;;;10.70;89.71
29941;BME280;16801;53.562;10.038;2023-03-23T00:37:52;100245.41;;;10.60;90.74
29941;BME280;16801;53.562;10.038;2023-03-23T00:41:15;100223.28;;;10.61;90.93
29941;BME280;16801;53.562;10.038;2023-03-23T00:44:36;100217.19;;;10.60;90.96
29941;BME280;16801;53.562;10.038;2023-03-23T00:47:56;100214.97;;;10.64;91.10
29941;BME280;16801;53.562;10.038;2023-03-23T00:51:25;100211.91;;;10.60;91.25
29941;BME280;16801;53.562;10.038;2023-03-23T00:54:46;100167.88;;;10.61;91.18
29941;BME280;16801;53.562;10.038;2023-03-23T00:58:09;100174.56;;;10.63;90.77
29941;BME280;16801;53.562;10.038;2023-03-23T01:01:32;100179.59;;;10.58;91.06
29941;BME280;16801;53.562;10.038;2023-03-23T01:04:53;100179.59;;;10.58;91.12
29941;BME280;16801;53.562;10.038;2023-03-23T01:08:15;100164.59;;;10.59;91.35
29941;BME280;16801;53.562;10.038;2023-03-23T01:11:38;100163.31;;;10.55;91.12
29941;BME280;16801;53.562;10.038;2023-03-23T01:14:59;100159.50;;;10.57;91.06
29941;BME280;16801;53.562;10.038;2023-03-23T01:18:20;100151.22;;;10.60;91.46
29941;BME280;16801;53.562;10.038;2023-03-23T01:21:41;100136.56;;;10.58;91.57
29941;BME280;16801;53.562;10.038;2023-03-23T01:25:03;100137.38;;;10.58;91.34
29941;BME280;16801;53.562;10.038;2023-03-23T01:28:25;100148.47;;;10.54;91.53
29941;BME280;16801;53.562;10.038;2023-03-23T01:31:46;100146.41;;;10.49;91.96
29941;BME280;16801;53.562;10.038;2023-03-23T01:35:07;100136.03;;;10.48;92.04
29941;BME280;16801;53.562;10.038;2023-03-23T01:38:29;100145.56;;;10.49;91.96
29941;BME280;16801;53.562;10.038;2023-03-23T01:41:51;100150.41;;;10.45;92.27
29941;BME280;16801;53.562;10.038;2023-03-23T01:45:23;100128.47;;;10.45;92.54
29941;BME280;16801;53.562;10.038;2023-03-23T01:48:45;100132.03;;;10.52;92.15
29941;BME280;16801;53.562;10.038;2023-03-23T01:52:09;100130.13;;;10.46;92.52
29941;BME280;16801;53.562;10.038;2023-03-23T01:55:31;100121.56;;;10.44;92.75
29941;BME280;16801;53.562;10.038;2023-03-23T01:58:54;100113.09;;;10.48;92.49
29941;BME280;16801;53.562;10.038;2023-03-23T02:02:17;100110.09;;;10.51;92.48
29941;BME280;16801;53.562;10.038;2023-03-23T02:05:41;100099.91;;;10.48;92.80
29941;BME280;16801;53.562;10.038;2023-03-23T02:09:11;100104.19;;;10.49;92.82
29941;BME280;16801;53.562;10.038;2023-03-23T02:12:33;100101.72;;;10.48;92.85
29941;BME280;16801;53.562;10.038;2023-03-23T02:16:03;100111.72;;;10.52;92.82
29941;BME280;16801;53.562;10.038;2023-03-23T02:19:49;100104.19;;;10.49;92.87
29941;BME280;16801;53.562;10.038;2023-03-23T02:23:35;100102.34;;;10.50;92.91
29941;BME280;16801;53.562;10.038;2023-03-23T02:27:08;100091.25;;;10.54;92.92
29941;BME280;16801;53.562;10.038;2023-03-23T02:30:39;100101.25;;;10.59;93.01
29941;BME280;16801;53.562;10.038;2023-03-23T02:34:09;100095.78;;;10.60;92.78
29941;BME280;16801;53.562;10.038;2023-03-23T02:37:38;100091.13;;;10.62;92.64
29941;BME280;16801;53.562;10.038;2023-03-23T02:41:02;100085.47;;;10.66;92.40
29941;BME280;16801;53.562;10.038;2023-03-23T02:44:24;100082.47;;;10.69;92.35
29941;BME280;16801;53.562;10.038;2023-03-23T02:47:52;100076.19;;;10.70;92.15
29941;BME280;16801;53.562;10.038;2023-03-23T02:51:15;100084.09;;;10.70;92.52
29941;BME280;16801;53.562;10.038;2023-03-23T02:54:37;100067.69;;;10.74;92.04
29941;BME280;16801;53.562;10.038;2023-03-23T02:57:59;100066.25;;;10.72;92.59
29941;BME280;16801;53.562;10.038;2023-03-23T03:01:55;100073.97;;;10.73;92.51
29941;BME280;16801;53.562;10.038;2023-03-23T03:05:29;100075.44;;;10.76;92.28
29941;BME280;16801;53.562;10.038;2023-03-23T03:09:01;100061.31;;;10.83;92.03
29941;BME280;16801;53.562;10.038;2023-03-23T03:12:29;100065.75;;;10.83;91.77
29941;BME280;16801;53.562;10.038;2023-03-23T03:15:55;100051.16;;;10.87;91.60
29941;BME280;16801;53.562;10.038;2023-03-23T03:19:20;100041.84;;;10.91;91.33
29941;BME280;16801;53.562;10.038;2023-03-23T03:22:46;100032.53;;;10.95;91.10
29941;BME280;16801;53.562;10.038;2023-03-23T03:26:10;100036.81;;;10.96;91.03
29941;BME280;16801;53.562;10.038;2023-03-23T03:29:40;99995.19;;;10.98;90.87
29941;BME280;16801;53.562;10.038;2023-03-23T03:33:02;99998.84;;;10.97;90.72
29941;BME280;16801;53.562;10.038;2023-03-23T03:36:26;99999.03;;;10.95;90.96
29941;BME280;16801;53.562;10.038;2023-03-23T03:39:55;100009.59;;;10.95;90.74
29941;BME280;16801;53.562;10.038;2023-03-23T03:43:17;100000.28;;;11.00;91.14
29941;BME280;16801;53.562;10.038;2023-03-23T03:46:38;100007.97;;;10.94;91.31
29941;BME280;16801;53.562;10.038;2023-03-23T03:49:59;99990.31;;;10.95;90.99
29941;BME280;16801;53.562;10.038;2023-03-23T03:53:20;100010.41;;;10.96;91.16
29941;BME280;16801;53.562;10.038;2023-03-23T03:56:41;100008.59;;;10.96;90.79
29941;BME280;16801;53.562;10.038;2023-03-23T04:00:22;100014.31;;;11.00;90.43
29941;BME280;16801;53.562;10.038;2023-03-23T04:03:43;100005.19;;;11.03;90.23
29941;BME280;16801;53.562;10.038;2023-03-23T04:07:14;100011.91;;;11.05;90.14
29941;BME280;16801;53.562;10.038;2023-03-23T04:10:36;99999.75;;;11.11;89.78
29941;BME280;16801;53.562;10.038;2023-03-23T04:13:57;100013.00;;;11.17;89.04
29941;BME280;16801;53.562;10.038;2023-03-23T04:17:26;100004.28;;;11.17;89.29
29941;BME280;16801;53.562;10.038;2023-03-23T04:20:47;100030.88;;;11.15;89.33
29941;BME280;16801;53.562;10.038;2023-03-23T04:24:12;100010.00;;;11.20;88.59
29941;BME280;16801;53.562;10.038;2023-03-23T04:27:33;100022.75;;;11.17;88.82
29941;BME280;16801;53.562;10.038;2023-03-23T04:30:56;100017.84;;;11.14;89.02
29941;BME280;16801;53.562;10.038;2023-03-23T04:34:21;100025.59;;;11.15;88.87
29941;BME280;16801;53.562;10.038;2023-03-23T04:37:44;100021.69;;;11.11;89.18
29941;BME280;16801;53.562;10.038;2023-03-23T04:41:08;100027.59;;;11.13;88.46
29941;BME280;16801;53.562;10.038;2023-03-23T04:44:36;100017.84;;;11.14;88.21
29941;BME280;16801;53.562;10.038;2023-03-23T04:48:04;100014.03;;;11.16;87.87
29941;BME280;16801;53.562;10.038;2023-03-23T04:51:36;100010.56;;;11.16;87.92
29941;BME280;16801;53.562;10.038;2023-03-23T04:55:09;100006.34;;;11.21;87.27
29941;BME280;16801;53.562;10.038;2023-03-23T04:58:33;100006.78;;;11.25;87.15
29941;BME280;16801;53.562;10.038;2023-03-23T05:02:08;99996.03;;;11.33;86.53
29941;BME280;16801;53.562;10.038;2023-03-23T05:05:29;100005.22;;;11.37;85.67
29941;BME280;16801;53.562;10.038;2023-03-23T05:08:55;100001.31;;;11.33;86.02
29941;BME280;16801;53.562;10.038;2023-03-23T05:12:17;100002.75;;;11.36;85.59
29941;BME280;16801;53.562;10.038;2023-03-23T05:15:52;99994.03;;;11.35;86.08
29941;BME280;16801;53.562;10.038;2023-03-23T05:19:13;99993.00;;;11.36;86.00
29941;BME280;16801;53.562;10.038;2023-03-23T05:22:34;99991.19;;;11.37;86.25
29941;BME280;16801;53.562;10.038;2023-03-23T05:25:58;99989.34;;;11.37;85.96
29941;BME280;16801;53.562;10.038;2023-03-23T05:29:22;99990.38;;;11.36;86.78
29941;BME280;16801;53.562;10.038;2023-03-23T05:32:51;99992.81;;;11.38;86.00
29941;BME280;16801;53.562;10.038;2023-03-23T05:36:42;100000.75;;;11.38;86.38
29941;BME280;16801;53.562;10.038;2023-03-23T05:40:19;99999.31;;;11.35;86.66
29941;BME280;16801;53.562;10.038;2023-03-23T05:43:50;99998.50;;;11.35;86.46
29941;BME280;16801;53.562;10.038;2023-03-23T05:47:19;99992.38;;;11.34;86.74
29941;BME280;16801;53.562;10.038;2023-03-23T05:50:47;99987.91;;;11.28;87.17
29941;BME280;16801;53.562;10.038;2023-03-23T05:54:08;99993.38;;;11.26;86.92
29941;BME280;16801;53.562;10.038;2023-03-23T05:57:31;99973.69;;;11.29;86.51
29941;BME280;16801;53.562;10.038;2023-03-23T06:01:00;99973.69;;;11.29;86.29
29941;BME280;16801;53.562;10.038;2023-03-23T06:04:24;99996.41;;;11.30;85.87
29941;BME280;16801;53.562;10.038;2023-03-23T06:07:59;99984.25;;;11.29;85.86
29941;BME280;16801;53.562;10.038;2023-03-23T06:11:20;99986.66;;;11.30;85.92
29941;BME280;16801;53.562;10.038;2023-03-23T06:15:01;99969.94;;;11.51;84.74
29941;BME280;16801;53.562;10.038;2023-03-23T06:18:44;99967.03;;;11.40;84.57
29941;BME280;16801;53.562;10.038;2023-03-23T06:22:28;99973.25;;;11.32;85.30
29941;BME280;16801;53.562;10.038;2023-03-23T06:26:02;99974.50;;;11.29;85.84
29941;BME280;16801;53.562;10.038;2023-03-23T06:29:25;99980.16;;;11.26;85.79
29941;BME280;16801;53.562;10.038;2023-03-23T06:32:49;99996.84;;;11.27;85.97
29941;BME280;16801;53.562;10.038;2023-03-23T06:36:17;99984.63;;;11.26;86.06
29941;BME280;16801;53.562;10.038;2023-03-23T06:39:44;99987.09;;;11.27;85.84
29941;BME280;16801;53.562;10.038;2023-03-23T06:43:28;99991.75;;;11.32;85.70
29941;BME280;16801;53.562;10.038;2023-03-23T06:47:05;99991.19;;;11.37;85.42
29941;BME280;16801;53.562;10.038;2023-03-23T06:50:30;99992.88;;;11.44;84.92
29941;BME280;16801;53.562;10.038;2023-03-23T06:53:53;99993.09;;;11.49;84.61
29941;BME280;16801;53.562;10.038;2023-03-23T06:57:15;99981.91;;;11.54;83.79
29941;BME280;16801;53.562;10.038;2023-03-23T07:00:39;99988.50;;;11.64;83.58
29941;BME280;16801;53.562;10.038;2023-03-23T07:04:03;99994.06;;;11.76;81.98
29941;BME280;16801;53.562;10.038;2023-03-23T07:07:35;99979.84;;;11.84;81.80
29941;BME280;16801;53.562;10.038;2023-03-23T07:11:14;99989.22;;;11.86;81.55
29941;BME280;16801;53.562;10.038;2023-03-23T07:14:35;99964.25;;;11.95;80.62
29941;BME280;16801;53.562;10.038;2023-03-23T07:17:56;99986.03;;;12.04;80.10
29941;BME280;16801;53.562;10.038;2023-03-23T07:21:25;99990.53;;;12.10;78.99
29941;BME280;16801;53.562;10.038;2023-03-23T07:24:46;99990.13;;;12.13;78.95
29941;BME280;16801;53.562;10.038;2023-03-23T07:28:14;99991.16;;;12.12;78.95
29941;BME280;16801;53.562;10.038;2023-03-23T07:31:36;99989.94;;;12.21;78.54
29941;BME280;16801;53.562;10.038;2023-03-23T07:34:57;100009.09;;;12.30;78.73
29941;BME280;16801;53.562;10.038;2023-03-23T07:38:44;99998.16;;;12.53;77.23
29941;BME280;16801;53.562;10.038;2023-03-23T07:42:06;100002.63;;;12.52;77.53
29941;BME280;16801;53.562;10.038;2023-03-23T07:45:37;100004.66;;;12.50;77.07
29941;BME280;16801;53.562;10.038;2023-03-23T07:48:58;100024.00;;;12.51;77.57
29941;BME280;16801;53.562;10.038;2023-03-23T07:52:27;100005.66;;;12.43;78.06
29941;BME280;16801;53.562;10.038;2023-03-23T07:55:48;100001.41;;;12.42;79.05
29941;BME280;16801;53.562;10.038;2023-03-23T07:59:44;100007.28;;;12.37;79.16
29941;BME280;16801;53.562;10.038;2023-03-23T08:03:07;100013.81;;;12.35;79.12
29941;BME280;16801;53.562;10.038;2023-03-23T08:07:07;100012.38;;;12.39;79.62
29941;BME280;16801;53.562;10.038;2023-03-23T08:10:37;100027.19;;;12.26;80.52
29941;BME280;16801;53.562;10.038;2023-03-23T08:14:24;100029.03;;;12.26;80.82
29941;BME280;16801;53.562;10.038;2023-03-23T08:18:14;100029.22;;;12.18;82.03
29941;BME280;16801;53.562;10.038;2023-03-23T08:21:54;100027.00;;;12.28;80.96
29941;BME280;16801;53.562;10.038;2023-03-23T08:25:24;100035.97;;;12.27;80.91
29941;BME280;16801;53.562;10.038;2023-03-23T08:29:12;100060.31;;;12.09;82.53
29941;BME280;16801;53.562;10.038;2023-03-23T08:32:46;100058.28;;;11.70;85.32
29941;BME280;16801;53.562;10.038;2023-03-23T08:36:23;100083.72;;;11.43;88.32
29941;BME280;16801;53.562;10.038;2023-03-23T08:39:56;100058.28;;;11.14;87.96
29941;BME280;16801;53.562;10.038;2023-03-23T08:43:30;100021.84;;;11.03;86.38
29941;BME280;16801;53.562;10.038;2023-03-23T08:47:10;100047.78;;;11.21;83.48
29941;BME280;16801;53.562;10.038;2023-03-23T08:50:54;100054.06;;;11.48;82.67
29941;BME280;16801;53.562;10.038;2023-03-23T08:54:16;100067.84;;;11.71;83.70
29941;BME280;16801;53.562;10.038;2023-03-23T08:58:01;100072.25;;;11.98;84.53
29941;BME280;16801;53.562;10.038;2023-03-23T09:01:49;100061.59;;;12.20;82.19
29941;BME280;16801;53.562;10.038;2023-03-23T09:05:28;100065.66;;;12.22;80.94
29941;BME280;16801;53.562;10.038;2023-03-23T09:08:56;100060.03;;;12.45;80.28
29941;BME280;16801;53.562;10.038;2023-03-23T09:12:20;100062.34;;;12.75;79.41
29941;BME280;16801;53.562;10.038;2023-03-23T09:15:41;100075.50;;;12.42;77.18
29941;BME280;16801;53.562;10.038;2023-03-23T09:19:02;100075.84;;;12.25;77.57
29941;BME280;16801;53.562;10.038;2023-03-23T09:22:23;100078.25;;;12.20;76.25
29941;BME280;16801;53.562;10.038;2023-03-23T09:25:44;100082.16;;;12.18;75.64
29941;BME280;16801;53.562;10.038;2023-03-23T09:29:07;100088.66;;;12.22;74.20
29941;BME280;16801;53.562;10.038;2023-03-23T09:32:28;100088.69;;;12.28;75.55
29941;BME280;16801;53.562;10.038;2023-03-23T09:35:49;100081.06;;;12.06;73.68
29941;BME280;16801;53.562;10.038;2023-03-23T09:39:10;100081.88;;;12.06;74.45
29941;BME280;16801;53.562;10.038;2023-03-23T09:42:39;100110.63;;;12.16;74.69
29941;BME280;16801;53.562;10.038;2023-03-23T09:46:14;100103.13;;;12.26;74.23
29941;BME280;16801;53.562;10.038;2023-03-23T09:49:41;100107.81;;;12.30;73.93
29941;BME280;16801;53.562;10.038;2023-03-23T09:53:08;100114.81;;;12.51;72.70
29941;BME280;16801;53.562;10.038;2023-03-23T09:56:32;100125.47;;;12.64;71.56
29941;BME280;16801;53.562;10.038;2023-03-23T09:59:58;100102.66;;;12.70;70.68
29941;BME280;16801;53.562;10.038;2023-03-23T10:03:38;100137.34;;;13.01;68.63
29941;BME280;16801;53.562;10.038;2023-03-23T10:07:09;100119.81;;;13.00;68.94
29941;BME280;16801;53.562;10.038;2023-03-23T10:10:36;100141.41;;;12.84;68.20
29941;BME280;16801;53.562;10.038;2023-03-23T10:14:10;100127.88;;;12.66;69.04
29941;BME280;16801;53.562;10.038;2023-03-23T10:17:39;100141.56;;;12.70;68.74
29941;BME280;16801;53.562;10.038;2023-03-23T10:21:04;100133.53;;;13.17;67.09
29941;BME280;16801;53.562;10.038;2023-03-23T10:24:31;100133.47;;;13.96;64.21
29941;BME280;16801;53.562;10.038;2023-03-23T10:27:59;100139.25;;;13.67;64.56
29941;BME280;16801;53.562;10.038;2023-03-23T10:31:23;100143.72;;;13.73;64.69
29941;BME280;16801;53.562;10.038;2023-03-23T10:34:47;100129.63;;;13.13;66.81
29941;BME280;16801;53.562;10.038;2023-03-23T10:38:15;100125.75;;;13.09;66.99
29941;BME280;16801;53.562;10.038;2023-03-23T10:41:38;100134.28;;;13.11;66.54
29941;BME280;16801;53.562;10.038;2023-03-23T10:45:00;100150.28;;;13.31;65.76
29941;BME280;16801;53.562;10.038;2023-03-23T10:48:31;100156.13;;;13.07;67.04
29941;BME280;16801;53.562;10.038;2023-03-23T10:55:40;100169.00;;;13.16;66.78
29941;BME280;16801;53.562;10.038;2023-03-23T10:59:13;100159.78;;;13.12;65.36
29941;BME280;16801;53.562;10.038;2023-03-23T11:02:39;100164.13;;;13.40;64.98
29941;BME280;16801;53.562;10.038;2023-03-23T11:06:02;100167.97;;;13.17;63.39
29941;BME280;16801;53.562;10.038;2023-03-23T11:09:34;100171.47;;;13.24;64.58
29941;BME280;16801;53.562;10.038;2023-03-23T11:12:58;100176.38;;;13.27;65.94
29941;BME280;16801;53.562;10.038;2023-03-23T11:16:24;100182.66;;;13.20;67.14
29941;BME280;16801;53.562;10.038;2023-03-23T11:19:46;100173.06;;;13.19;67.92
29941;BME280;16801;53.562;10.038;2023-03-23T11:23:13;100190.75;;;12.98;68.93
29941;BME280;16801;53.562;10.038;2023-03-23T11:26:38;100180.31;;;12.84;69.58
29941;BME280;16801;53.562;10.038;2023-03-23T11:30:08;100181.13;;;12.91;69.35
29941;BME280;16801;53.562;10.038;2023-03-23T11:33:30;100183.25;;;13.15;68.05
29941;BME280;16801;53.562;10.038;2023-03-23T11:37:00;100181.69;;;13.54;64.40
29941;BME280;16801;53.562;10.038;2023-03-23T11:40:23;100189.84;;;13.52;64.15
29941;BME280;16801;53.562;10.038;2023-03-23T11:43:46;100224.66;;;13.23;66.90
29941;BME280;16801;53.562;10.038;2023-03-23T11:47:17;100190.00;;;13.24;67.67
29941;BME280;16801;53.562;10.038;2023-03-23T11:50:49;100189.63;;;13.93;65.75
29941;BME280;16801;53.562;10.038;2023-03-23T11:54:15;100177.78;;;13.56;66.88
29941;BME280;16801;53.562;10.038;2023-03-23T11:57:37;100202.03;;;13.20;68.09
29941;BME280;16801;53.562;10.038;2023-03-23T12:01:02;100212.56;;;13.00;69.02
29941;BME280;16801;53.562;10.038;2023-03-23T12:04:46;100223.94;;;12.94;68.77
29941;BME280;16801;53.562;10.038;2023-03-23T12:08:34;100219.66;;;12.93;68.16
29941;BME280;16801;53.562;10.038;2023-03-23T12:12:08;100199.88;;;12.83;68.50
29941;BME280;16801;53.562;10.038;2023-03-23T12:15:36;100204.38;;;12.95;68.76
29941;BME280;16801;53.562;10.038;2023-03-23T12:19:03;100216.16;;;12.80;71.08
29941;BME280;16801;53.562;10.038;2023-03-23T12:22:40;100226.28;;;12.70;71.20
29941;BME280;16801;53.562;10.038;2023-03-23T12:26:24;100214.06;;;12.62;71.24
29941;BME280;16801;53.562;10.038;2023-03-23T12:29:55;100215.81;;;12.48;71.56
29941;BME280;16801;53.562;10.038;2023-03-23T12:33:25;100208.47;;;12.50;72.27
29941;BME280;16801;53.562;10.038;2023-03-23T12:36:57;100199.97;;;12.55;72.51
29941;BME280;16801;53.562;10.038;2023-03-23T12:40:46;100217.47;;;12.56;72.21
29941;BME280;16801;53.562;10.038;2023-03-23T12:44:09;100206.81;;;12.90;72.03
29941;BME280;16801;53.562;10.038;2023-03-23T12:47:37;100206.00;;;12.90;72.48
29941;BME280;16801;53.562;10.038;2023-03-23T12:51:07;100205.38;;;12.88;72.57
29941;BME280;16801;53.562;10.038;2023-03-23T12:54:33;100194.28;;;13.25;70.98
29941;BME280;16801;53.562;10.038;2023-03-23T12:58:02;100206.41;;;12.93;72.60
29941;BME280;16801;53.562;10.038;2023-03-23T13:01:27;100188.47;;;12.89;71.76
29941;BME280;16801;53.562;10.038;2023-03-23T13:04:52;100178.56;;;16.30;60.89
29941;BME280;16801;53.562;10.038;2023-03-23T13:08:19;100173.50;;;18.41;51.27
29941;BME280;16801;53.562;10.038;2023-03-23T13:11:41;100176.22;;;17.18;55.17
29941;BME280;16801;53.562;10.038;2023-03-23T13:15:15;100179.41;;;16.97;53.37
29941;BME280;16801;53.562;10.038;2023-03-23T13:18:42;100181.72;;;14.96;60.48
29941;BME280;16801;53.562;10.038;2023-03-23T13:22:09;100169.97;;;17.24;54.39
29941;BME280;16801;53.562;10.038;2023-03-23T13:25:43;100178.91;;;14.91;58.61
29941;BME280;16801;53.562;10.038;2023-03-23T13:29:13;100171.91;;;14.52;60.99
29941;BME280;16801;53.562;10.038;2023-03-23T13:32:37;100164.00;;;15.96;54.88
29941;BME280;16801;53.562;10.038;2023-03-23T13:36:04;100163.94;;;16.21;53.67
29941;BME280;16801;53.562;10.038;2023-03-23T13:39:28;100163.34;;;16.19;54.54
29941;BME280;16801;53.562;10.038;2023-03-23T13:42:51;100153.97;;;14.34;61.28
29941;BME280;16801;53.562;10.038;2023-03-23T13:46:25;100164.47;;;14.09;62.61
29941;BME280;16801;53.562;10.038;2023-03-23T13:49:50;100158.28;;;15.43;58.09
29941;BME280;16801;53.562;10.038;2023-03-23T13:53:22;100174.00;;;14.88;58.60
29941;BME280;16801;53.562;10.038;2023-03-23T13:56:53;100174.31;;;13.69;60.99
29941;BME280;16801;53.562;10.038;2023-03-23T14:00:45;100147.00;;;13.75;61.66
29941;BME280;16801;53.562;10.038;2023-03-23T14:04:10;100168.59;;;13.59;62.85
29941;BME280;16801;53.562;10.038;2023-03-23T14:07:53;100204.91;;;13.39;64.22
29941;BME280;16801;53.562;10.038;2023-03-23T14:11:17;100229.09;;;13.09;63.86
29941;BME280;16801;53.562;10.038;2023-03-23T14:14:41;100244.03;;;12.35;64.66
29941;BME280;16801;53.562;10.038;2023-03-23T14:18:04;100268.09;;;12.12;68.72
29941;BME280;16801;53.562;10.038;2023-03-23T14:21:32;100232.50;;;12.42;69.89
29941;BME280;16801;53.562;10.038;2023-03-23T14:24:59;100200.03;;;11.99;71.74
29941;BME280;16801;53.562;10.038;2023-03-23T14:28:21;100190.50;;;11.49;72.38
29941;BME280;16801;53.562;10.038;2023-03-23T14:31:43;100186.59;;;11.45;72.38
29941;BME280;16801;53.562;10.038;2023-03-23T14:35:07;100193.56;;;12.84;65.06
29941;BME280;16801;53.562;10.038;2023-03-23T14:38:29;100187.94;;;14.19;59.51
29941;BME280;16801;53.562;10.038;2023-03-23T14:41:54;100183.25;;;14.01;59.38
29941;BME280;16801;53.562;10.038;2023-03-23T14:45:17;100188.56;;;14.14;59.87
29941;BME280;16801;53.562;10.038;2023-03-23T14:48:40;100199.38;;;14.19;58.00
29941;BME280;16801;53.562;10.038;2023-03-23T14:52:08;100195.91;;;14.06;57.57
29941;BME280;16801;53.562;10.038;2023-03-23T14:55:30;100207.13;;;14.14;58.21
29941;BME280;16801;53.562;10.038;2023-03-23T14:58:53;100202.19;;;14.24;57.60
29941;BME280;16801;53.562;10.038;2023-03-23T15:02:17;100206.47;;;14.32;57.46
29941;BME280;16801;53.562;10.038;2023-03-23T15:05:44;100207.13;;;14.08;58.27
29941;BME280;16801;53.562;10.038;2023-03-23T15:09:10;100223.28;;;13.60;59.48
29941;BME280;16801;53.562;10.038;2023-03-23T15:12:34;100220.63;;;13.53;59.98
29941;BME280;16801;53.562;10.038;2023-03-23T15:16:06;100221.41;;;13.34;61.40
29941;BME280;16801;53.562;10.038;2023-03-23T15:19:32;100239.97;;;13.27;61.81
29941;BME280;16801;53.562;10.038;2023-03-23T15:22:54;100247.59;;;12.96;63.11
29941;BME280;16801;53.562;10.038;2023-03-23T15:26:23;100244.75;;;12.97;63.83
29941;BME280;16801;53.562;10.038;2023-03-23T15:29:49;100254.63;;;12.76;64.83
29941;BME280;16801;53.562;10.038;2023-03-23T15:33:13;100248.09;;;12.72;66.00
29941;BME280;16801;53.562;10.038;2023-03-23T15:36:34;100253.16;;;12.60;66.41
29941;BME280;16801;53.562;10.038;2023-03-23T15:39:56;100243.09;;;12.96;65.73
29941;BME280;16801;53.562;10.038;2023-03-23T15:43:20;100249.81;;;13.73;63.11
29941;BME280;16801;53.562;10.038;2023-03-23T15:46:51;100251.03;;;13.71;63.22
29941;BME280;16801;53.562;10.038;2023-03-23T15:50:15;100240.22;;;13.85;64.40
29941;BME280;16801;53.562;10.038;2023-03-23T15:53:37;100238.78;;;13.50;63.12
29941;BME280;16801;53.562;10.038;2023-03-23T15:56:58;100241.53;;;13.09;64.28
29941;BME280;16801;53.562;10.038;2023-03-23T16:00:22;100259.25;;;13.15;63.63
29941;BME280;16801;53.562;10.038;2023-03-23T16:03:46;100260.44;;;12.99;62.96
29941;BME280;16801;53.562;10.038;2023-03-23T16:07:09;100262.47;;;12.56;63.13
29941;BME280;16801;53.562;10.038;2023-03-23T16:10:32;100261.22;;;12.52;64.04
29941;BME280;16801;53.562;10.038;2023-03-23T16:13:53;100268.88;;;12.75;63.53
29941;BME280;16801;53.562;10.038;2023-03-23T16:17:17;100261.56;;;12.77;63.51
29941;BME280;16801;53.562;10.038;2023-03-23T16:20:39;100276.50;;;12.84;62.98
29941;BME280;16801;53.562;10.038;2023-03-23T16:24:01;100283.72;;;13.10;63.32
29941;BME280;16801;53.562;10.038;2023-03-23T16:27:22;100275.56;;;13.12;63.37
29941;BME280;16801;53.562;10.038;2023-03-23T16:30:43;100285.06;;;13.41;62.68
29941;BME280;16801;53.562;10.038;2023-03-23T16:34:04;100286.72;;;13.48;62.46
29941;BME280;16801;53.562;10.038;2023-03-23T16:37:25;100286.72;;;13.48;62.87
29941;BME280;16801;53.562;10.038;2023-03-23T16:40:53;100277.06;;;13.21;63.11
29941;BME280;16801;53.562;10.038;2023-03-23T16:44:14;100288.44;;;12.74;63.83
29941;BME280;16801;53.562;10.038;2023-03-23T16:47:35;100285.16;;;12.65;64.98
29941;BME280;16801;53.562;10.038;2023-03-23T16:50:56;100276.50;;;12.50;65.18
29941;BME280;16801;53.562;10.038;2023-03-23T16:54:17;100256.25;;;12.36;66.47
29941;BME280;16801;53.562;10.038;2023-03-23T16:57:39;100241.09;;;12.23;67.29
29941;BME280;16801;53.562;10.038;2023-03-23T17:01:00;100253.31;;;12.17;67.11
29941;BME280;16801;53.562;10.038;2023-03-23T17:04:21;100240.69;;;12.19;67.29
29941;BME280;16801;53.562;10.038;2023-03-23T17:07:42;100246.94;;;12.12;67.39
29941;BME280;16801;53.562;10.038;2023-03-23T17:11:03;100256.53;;;12.13;67.47
29941;BME280;16801;53.562;10.038;2023-03-23T17:14:26;100269.19;;;12.24;67.03
29941;BME280;16801;53.562;10.038;2023-03-23T17:17:47;100264.59;;;12.05;67.33
29941;BME280;16801;53.562;10.038;2023-03-23T17:21:08;100269.41;;;11.94;67.93
29941;BME280;16801;53.562;10.038;2023-03-23T17:24:29;100275.44;;;11.88;68.55
29941;BME280;16801;53.562;10.038;2023-03-23T17:27:50;100268.91;;;11.84;67.98
29941;BME280;16801;53.562;10.038;2023-03-23T17:31:12;100270.97;;;11.89;68.80
29941;BME280;16801;53.562;10.038;2023-03-23T17:34:33;100274.81;;;11.86;68.49
29941;BME280;16801;53.562;10.038;2023-03-23T17:37:54;100279.16;;;11.94;67.63
29941;BME280;16801;53.562;10.038;2023-03-23T17:41:15;100280.38;;;11.91;67.81
29941;BME280;16801;53.562;10.038;2023-03-23T17:44:36;100287.97;;;11.80;68.33
29941;BME280;16801;53.562;10.038;2023-03-23T17:47:58;100281.25;;;11.77;68.74
29941;BME280;16801;53.562;10.038;2023-03-23T17:51:19;100290.81;;;11.78;69.23